Time,TemperatureF,DewpointF,PressureIn,WindDirection,WindDirectionDegrees,WindSpeedMPH,WindSpeedGustMPH,Humidity,HourlyPrecipIn,Conditions,Clouds,dailyrainin,SoftwareType,DateUTC
2013-10-29 00:13:00,27.1,24.3,30.30,South,180,0.0,-999.0,89,-99.99,,,0.00,Acu-Link.com,2013-10-29 04:13:00,
2013-10-29 00:28:00,27.0,24.2,30.31,WSW,247,0.0,-999.0,89,-99.99,,,0.00,Acu-Link.com,2013-10-29 04:28:00,
2013-10-29 00:44:00,26.8,24.0,30.31,West,270,0.0,-999.0,89,-99.99,,,0.00,Acu-Link.com,2013-10-29 04:44:00,
2013-10-29 00:59:00,26.6,23.8,30.31,WNW,292,0.0,-999.0,89,-99.99,,,0.00,Acu-Link.com,2013-10-29 04:59:00,
2013-10-29 01:14:00,26.8,24.0,30.31,WNW,292,0.0,-999.0,89,-99.99,,,0.00,Acu-Link.com,2013-10-29 05:14:00,
2013-10-29 01:29:00,26.8,24.0,30.31,South,180,0.0,-999.0,89,-99.99,,,0.00,Acu-Link.com,2013-10-29 05:29:00,
2013-10-29 01:44:00,27.5,24.7,30.32,SW,225,0.0,-999.0,89,-99.99,,,0.00,Acu-Link.com,2013-10-29 05:44:00,
2013-10-29 02:00:00,28.6,25.5,30.32,WSW,247,0.0,-999.0,88,-99.99,,,0.00,Acu-Link.com,2013-10-29 06:00:00,
2013-10-29 02:15:00,28.8,25.7,30.34,SW,225,0.0,-999.0,88,-99.99,,,0.00,Acu-Link.com,2013-10-29 06:15:00,
2013-10-29 02:30:00,29.5,26.7,30.33,SSE,157,0.0,-999.0,89,-99.99,,,0.00,Acu-Link.com,2013-10-29 06:30:00,
2013-10-29 02:45:00,30.2,27.4,30.33,ESE,112,0.0,-999.0,89,-99.99,,,0.00,Acu-Link.com,2013-10-29 06:45:00,
2013-10-29 03:01:00,30.7,27.8,30.33,SSW,202,0.0,-999.0,89,-99.99,,,0.00,Acu-Link.com,2013-10-29 07:01:00,
2013-10-29 03:16:00,31.3,28.4,30.33,South,180,0.0,-999.0,89,-99.99,,,0.00,Acu-Link.com,2013-10-29 07:16:00,
2013-10-29 03:31:00,31.6,29.0,30.34,East,90,0.0,-999.0,90,-99.99,,,0.00,Acu-Link.com,2013-10-29 07:31:00,
2013-10-29 03:46:00,31.8,29.2,30.33,WSW,247,0.0,-999.0,90,-99.99,,,0.00,Acu-Link.com,2013-10-29 07:46:00,
2013-10-29 04:01:00,32.0,29.4,30.33,West,270,0.0,-999.0,90,-99.99,,,0.00,Acu-Link.com,2013-10-29 08:01:00,
2013-10-29 04:17:00,32.2,29.9,30.33,WSW,247,0.0,-999.0,91,-99.99,,,0.00,Acu-Link.com,2013-10-29 08:17:00,
2013-10-29 04:32:00,32.2,30.1,30.32,WSW,247,0.0,-999.0,92,-99.99,,,0.00,Acu-Link.com,2013-10-29 08:32:00,
2013-10-29 04:47:00,32.2,30.1,30.32,SE,135,0.0,-999.0,92,-99.99,,,0.00,Acu-Link.com,2013-10-29 08:47:00,
2013-10-29 05:02:00,32.2,30.1,30.32,SE,135,0.0,-999.0,92,-99.99,,,0.00,Acu-Link.com,2013-10-29 09:02:00,
2013-10-29 05:17:00,32.2,30.1,30.32,SE,135,0.0,-999.0,92,-99.99,,,0.00,Acu-Link.com,2013-10-29 09:17:00,
2013-10-29 05:32:00,32.4,30.3,30.33,South,180,0.0,-999.0,92,-99.99,,,0.00,Acu-Link.com,2013-10-29 09:32:00,
2013-10-29 05:48:00,32.2,30.1,30.34,West,270,0.0,-999.0,92,-99.99,,,0.00,Acu-Link.com,2013-10-29 09:48:00,
2013-10-29 06:03:00,31.8,29.7,30.34,West,270,0.0,-999.0,92,-99.99,,,0.00,Acu-Link.com,2013-10-29 10:03:00,
2013-10-29 06:18:00,31.6,29.5,30.35,WNW,292,0.0,-999.0,92,-99.99,,,0.00,Acu-Link.com,2013-10-29 10:18:00,
2013-10-29 06:34:00,31.3,29.3,30.35,SSW,202,0.0,-999.0,92,-99.99,,,0.00,Acu-Link.com,2013-10-29 10:34:00,
2013-10-29 06:49:00,30.6,28.6,30.35,SSW,202,0.0,-999.0,92,-99.99,,,0.00,Acu-Link.com,2013-10-29 10:49:00,
2013-10-29 07:04:00,30.2,28.2,30.36,NNE,22,0.0,-999.0,92,-99.99,,,0.00,Acu-Link.com,2013-10-29 11:04:00,
2013-10-29 07:20:00,29.8,27.8,30.35,SSW,202,0.0,-999.0,92,-99.99,,,0.00,Acu-Link.com,2013-10-29 11:20:00,
2013-10-29 07:35:00,29.3,27.0,30.35,ESE,112,0.0,-999.0,91,-99.99,,,0.00,Acu-Link.com,2013-10-29 11:35:00,
2013-10-29 07:50:00,28.9,26.3,30.34,West,270,0.0,-999.0,90,-99.99,,,0.00,Acu-Link.com,2013-10-29 11:50:00,
2013-10-29 08:05:00,28.8,26.2,30.35,North,0,0.0,-999.0,90,-99.99,,,0.00,Acu-Link.com,2013-10-29 12:05:00,
2013-10-29 08:21:00,28.8,26.2,30.35,North,0,0.0,-999.0,90,-99.99,,,0.00,Acu-Link.com,2013-10-29 12:21:00,
2013-10-29 08:36:00,29.1,26.5,30.35,East,90,0.0,-999.0,90,-99.99,,,0.00,Acu-Link.com,2013-10-29 12:36:00,
2013-10-29 08:51:00,30.0,27.4,30.35,North,0,0.0,-999.0,90,-99.99,,,0.00,Acu-Link.com,2013-10-29 12:51:00,
2013-10-29 09:07:00,31.3,28.7,30.35,ESE,112,0.0,-999.0,90,-99.99,,,0.00,Acu-Link.com,2013-10-29 13:07:00,
2013-10-29 09:22:00,32.5,30.4,30.36,SSE,157,0.0,-999.0,92,-99.99,,,0.00,Acu-Link.com,2013-10-29 13:22:00,
2013-10-29 09:37:00,39.4,32.5,30.36,NE,45,2.2,-999.0,76,-99.99,,,0.00,Acu-Link.com,2013-10-29 13:37:00,
2013-10-29 09:52:00,41.7,32.6,30.37,ESE,112,3.2,-999.0,70,-99.99,,,0.00,Acu-Link.com,2013-10-29 13:52:00,
2013-10-29 10:08:00,42.8,33.3,30.37,NNW,337,1.7,-999.0,69,-99.99,,,0.00,Acu-Link.com,2013-10-29 14:08:00,
2013-10-29 10:23:00,44.2,32.8,30.36,ESE,112,2.7,-999.0,64,-99.99,,,0.00,Acu-Link.com,2013-10-29 14:23:00,
2013-10-29 10:38:00,45.9,33.6,30.35,SSE,157,1.1,-999.0,62,-99.99,,,0.00,Acu-Link.com,2013-10-29 14:38:00,
2013-10-29 10:54:00,46.6,33.9,30.34,NNE,22,1.7,-999.0,61,-99.99,,,0.00,Acu-Link.com,2013-10-29 14:54:00,
2013-10-29 11:09:00,46.4,33.7,30.34,NW,315,1.1,-999.0,61,-99.99,,,0.00,Acu-Link.com,2013-10-29 15:09:00,
2013-10-29 11:24:00,48.6,34.5,30.33,South,180,2.7,-999.0,58,-99.99,,,0.00,Acu-Link.com,2013-10-29 15:24:00,
2013-10-29 11:39:00,48.2,34.1,30.32,ESE,112,2.2,-999.0,58,-99.99,,,0.00,Acu-Link.com,2013-10-29 15:39:00,
2013-10-29 11:54:00,49.1,34.5,30.34,ESE,112,2.2,-999.0,57,-99.99,,,0.00,Acu-Link.com,2013-10-29 15:54:00,
2013-10-29 12:10:00,48.9,33.0,30.34,WNW,292,0.0,-999.0,54,-99.99,,,0.00,Acu-Link.com,2013-10-29 16:10:00,
2013-10-29 12:25:00,49.1,34.1,30.34,North,0,2.2,-999.0,56,-99.99,,,0.00,Acu-Link.com,2013-10-29 16:25:00,
2013-10-29 12:40:00,49.3,33.4,30.32,SSW,202,2.2,-999.0,54,-99.99,,,0.00,Acu-Link.com,2013-10-29 16:40:00,
2013-10-29 12:55:00,48.7,33.7,30.31,WNW,292,3.2,-999.0,56,-99.99,,,0.00,Acu-Link.com,2013-10-29 16:55:00,
2013-10-29 13:11:00,49.5,34.0,30.31,WNW,292,1.1,-999.0,55,-99.99,,,0.00,Acu-Link.com,2013-10-29 17:11:00,
2013-10-29 13:26:00,50.2,35.1,30.30,NE,45,2.2,-999.0,56,-99.99,,,0.00,Acu-Link.com,2013-10-29 17:26:00,
2013-10-29 13:41:00,50.0,34.9,30.29,East,90,3.2,-999.0,56,-99.99,,,0.00,Acu-Link.com,2013-10-29 17:41:00,
2013-10-29 13:56:00,49.1,34.1,30.28,ESE,112,2.7,-999.0,56,-99.99,,,0.00,Acu-Link.com,2013-10-29 17:56:00,
2013-10-29 14:11:00,49.8,33.4,30.28,NW,315,2.2,-999.0,53,-99.99,,,0.00,Acu-Link.com,2013-10-29 18:11:00,
2013-10-29 14:26:00,49.6,34.6,30.26,SE,135,0.0,-999.0,56,-99.99,,,0.00,Acu-Link.com,2013-10-29 18:26:00,
2013-10-29 14:42:00,50.0,34.0,30.26,SE,135,2.2,-999.0,54,-99.99,,,0.00,Acu-Link.com,2013-10-29 18:42:00,
2013-10-29 14:57:00,53.2,35.0,30.26,WSW,247,2.2,-999.0,50,-99.99,,,0.00,Acu-Link.com,2013-10-29 18:57:00,
2013-10-29 15:12:00,51.3,33.8,30.25,ENE,67,2.2,-999.0,51,-99.99,,,0.00,Acu-Link.com,2013-10-29 19:12:00,
2013-10-29 15:27:00,49.5,32.6,30.25,West,270,0.0,-999.0,52,-99.99,,,0.00,Acu-Link.com,2013-10-29 19:27:00,
2013-10-29 15:42:00,48.6,33.2,30.24,WNW,292,0.0,-999.0,55,-99.99,,,0.00,Acu-Link.com,2013-10-29 19:42:00,
2013-10-29 15:58:00,49.3,33.4,30.25,East,90,0.0,-999.0,54,-99.99,,,0.00,Acu-Link.com,2013-10-29 19:58:00,
2013-10-29 16:13:00,49.3,33.4,30.26,WSW,247,1.1,-999.0,54,-99.99,,,0.00,Acu-Link.com,2013-10-29 20:13:00,
2013-10-29 16:28:00,50.5,34.0,30.25,North,0,0.0,-999.0,53,-99.99,,,0.00,Acu-Link.com,2013-10-29 20:28:00,
2013-10-29 16:44:00,50.7,34.2,30.24,NNW,337,0.0,-999.0,53,-99.99,,,0.00,Acu-Link.com,2013-10-29 20:44:00,
2013-10-29 16:59:00,50.2,33.7,30.24,East,90,0.0,-999.0,53,-99.99,,,0.00,Acu-Link.com,2013-10-29 20:59:00,
2013-10-29 17:14:00,49.1,33.6,30.25,WSW,247,0.0,-999.0,55,-99.99,,,0.00,Acu-Link.com,2013-10-29 21:14:00,
2013-10-29 17:29:00,48.0,33.5,30.24,NW,315,0.0,-999.0,57,-99.99,,,0.00,Acu-Link.com,2013-10-29 21:29:00,
2013-10-29 17:45:00,46.9,32.9,30.24,NW,315,1.7,-999.0,58,-99.99,,,0.00,Acu-Link.com,2013-10-29 21:45:00,
2013-10-29 18:00:00,45.5,34.8,30.25,ENE,67,1.1,-999.0,66,-99.99,,,0.00,Acu-Link.com,2013-10-29 22:00:00,
2013-10-29 18:15:00,44.8,35.3,30.26,NNW,337,1.7,-999.0,69,-99.99,,,0.00,Acu-Link.com,2013-10-29 22:15:00,
2013-10-29 18:30:00,44.1,35.3,30.25,West,270,1.7,-999.0,71,-99.99,,,0.00,Acu-Link.com,2013-10-29 22:30:00,
2013-10-29 18:46:00,43.5,35.4,30.25,East,90,1.1,-999.0,73,-99.99,,,0.00,Acu-Link.com,2013-10-29 22:46:00,
2013-10-29 19:01:00,43.0,35.3,30.26,East,90,0.0,-999.0,74,-99.99,,,0.00,Acu-Link.com,2013-10-29 23:01:00,
2013-10-29 19:16:00,42.8,35.1,30.27,East,90,0.0,-999.0,74,-99.99,,,0.00,Acu-Link.com,2013-10-29 23:16:00,
2013-10-29 19:31:00,42.4,35.0,30.27,North,0,0.0,-999.0,75,-99.99,,,0.00,Acu-Link.com,2013-10-29 23:31:00,
2013-10-29 19:46:00,42.3,35.6,30.26,WSW,247,0.0,-999.0,77,-99.99,,,0.00,Acu-Link.com,2013-10-29 23:46:00,
2013-10-29 20:02:00,42.1,35.4,30.26,East,90,0.0,-999.0,77,-99.99,,,0.00,Acu-Link.com,2013-10-30 00:02:00,
2013-10-29 20:17:00,41.7,35.4,30.26,SSE,157,0.0,-999.0,78,-99.99,,,0.00,Acu-Link.com,2013-10-30 00:17:00,
2013-10-29 20:32:00,41.5,35.5,30.24,East,90,0.0,-999.0,79,-99.99,,,0.00,Acu-Link.com,2013-10-30 00:32:00,
2013-10-29 20:48:00,41.4,35.4,30.26,ESE,112,0.0,-999.0,79,-99.99,,,0.00,Acu-Link.com,2013-10-30 00:48:00,
2013-10-29 21:03:00,41.4,35.7,30.25,East,90,0.0,-999.0,80,-99.99,,,0.00,Acu-Link.com,2013-10-30 01:03:00,
2013-10-29 21:18:00,41.4,36.0,30.24,NNW,337,0.0,-999.0,81,-99.99,,,0.00,Acu-Link.com,2013-10-30 01:18:00,
2013-10-29 21:34:00,41.4,36.0,30.23,East,90,0.0,-999.0,81,-99.99,,,0.00,Acu-Link.com,2013-10-30 01:34:00,
2013-10-29 21:49:00,41.0,35.6,30.23,SW,225,0.0,-999.0,81,-99.99,,,0.00,Acu-Link.com,2013-10-30 01:49:00,
2013-10-29 22:04:00,40.8,35.7,30.23,ESE,112,0.0,-999.0,82,-99.99,,,0.00,Acu-Link.com,2013-10-30 02:04:00,
2013-10-29 22:20:00,40.8,35.7,30.21,East,90,0.0,-999.0,82,-99.99,,,0.00,Acu-Link.com,2013-10-30 02:20:00,
2013-10-29 22:35:00,40.8,35.7,30.21,East,90,0.0,-999.0,82,-99.99,,,0.00,Acu-Link.com,2013-10-30 02:35:00,
2013-10-29 22:50:00,40.8,36.0,30.21,East,90,0.0,-999.0,83,-99.99,,,0.00,Acu-Link.com,2013-10-30 02:50:00,
2013-10-29 23:05:00,40.8,36.3,30.21,East,90,0.0,-999.0,84,-99.99,,,0.00,Acu-Link.com,2013-10-30 03:05:00,
2013-10-29 23:21:00,40.8,36.3,30.20,East,90,0.0,-999.0,84,-99.99,,,0.00,Acu-Link.com,2013-10-30 03:21:00,
2013-10-29 23:36:00,40.8,36.3,30.20,East,90,0.0,-999.0,84,-99.99,,,0.00,Acu-Link.com,2013-10-30 03:36:00,
2013-10-29 23:51:00,40.8,36.6,30.20,WNW,292,0.0,-999.0,85,-99.99,,,0.00,Acu-Link.com,2013-10-30 03:51:00,